sensor_id;sensor_type;location;lat;lon;timestamp;temperature;humidity
44111;DHT22;29774;52.664;5.074;2023-12-20T00:00:36;8.90;82.50
44111;DHT22;29774;52.664;5.074;2023-12-20T00:03:03;9.10;82.80
44111;DHT22;29774;52.664;5.074;2023-12-20T00:05:28;9.40;83.60
44111;DHT22;29774;52.664;5.074;2023-12-20T00:07:54;9.40;82.70
44111;DHT22;29774;52.664;5.074;2023-12-20T00:10:19;9.90;84.50
44111;DHT22;29774;52.664;5.074;2023-12-20T00:12:45;10.40;84.70
44111;DHT22;29774;52.664;5.074;2023-12-20T00:15:11;10.40;83.10
44111;DHT22;29774;52.664;5.074;2023-12-20T00:17:36;10.20;82.30
44111;DHT22;29774;52.664;5.074;2023-12-20T00:20:02;10.40;83.00
44111;DHT22;29774;52.664;5.074;2023-12-20T00:22:28;10.40;82.60
44111;DHT22;29774;52.664;5.074;2023-12-20T00:24:53;10.20;82.00
44111;DHT22;29774;52.664;5.074;2023-12-20T00:27:19;9.90;81.60
44111;DHT22;29774;52.664;5.074;2023-12-20T00:29:44;10.10;82.40
44111;DHT22;29774;52.664;5.074;2023-12-20T00:32:13;10.10;82.10
44111;DHT22;29774;52.664;5.074;2023-12-20T00:34:39;9.80;81.20
44111;DHT22;29774;52.664;5.074;2023-12-20T00:37:04;9.70;81.30
44111;DHT22;29774;52.664;5.074;2023-12-20T00:39:30;9.60;80.90
44111;DHT22;29774;52.664;5.074;2023-12-20T00:41:56;9.10;80.20
44111;DHT22;29774;52.664;5.074;2023-12-20T00:44:22;9.00;80.80
44111;DHT22;29774;52.664;5.074;2023-12-20T00:46:47;8.90;81.40
44111;DHT22;29774;52.664;5.074;2023-12-20T00:49:13;9.10;81.80
44111;DHT22;29774;52.664;5.074;2023-12-20T00:51:38;9.40;83.00
44111;DHT22;29774;52.664;5.074;2023-12-20T00:54:04;9.40;82.10
44111;DHT22;29774;52.664;5.074;2023-12-20T00:56:30;9.50;82.90
44111;DHT22;29774;52.664;5.074;2023-12-20T00:58:55;9.70;82.50
44111;DHT22;29774;52.664;5.074;2023-12-20T01:01:21;9.50;81.50
44111;DHT22;29774;52.664;5.074;2023-12-20T01:03:47;9.70;82.60
44111;DHT22;29774;52.664;5.074;2023-12-20T01:06:13;9.80;82.50
44111;DHT22;29774;52.664;5.074;2023-12-20T01:08:39;9.90;82.80
44111;DHT22;29774;52.664;5.074;2023-12-20T01:11:05;10.20;83.40
44111;DHT22;29774;52.664;5.074;2023-12-20T01:13:31;10.10;82.20
44111;DHT22;29774;52.664;5.074;2023-12-20T01:15:57;9.70;81.30
44111;DHT22;29774;52.664;5.074;2023-12-20T01:18:22;10.10;83.10
44111;DHT22;29774;52.664;5.074;2023-12-20T01:20:48;10.30;83.30
44111;DHT22;29774;52.664;5.074;2023-12-20T01:23:13;10.50;83.10
44111;DHT22;29774;52.664;5.074;2023-12-20T01:25:39;10.80;83.40
44111;DHT22;29774;52.664;5.074;2023-12-20T01:28:05;11.00;82.00
44111;DHT22;29774;52.664;5.074;2023-12-20T01:30:30;10.70;80.60
44111;DHT22;29774;52.664;5.074;2023-12-20T01:32:56;10.30;80.20
44111;DHT22;29774;52.664;5.074;2023-12-20T01:35:21;10.40;81.20
44111;DHT22;29774;52.664;5.074;2023-12-20T01:37:47;10.60;81.50
44111;DHT22;29774;52.664;5.074;2023-12-20T01:40:13;10.70;81.50
44111;DHT22;29774;52.664;5.074;2023-12-20T01:42:38;10.70;81.40
44111;DHT22;29774;52.664;5.074;2023-12-20T01:45:04;10.80;81.40
44111;DHT22;29774;52.664;5.074;2023-12-20T01:47:30;10.80;81.10
44111;DHT22;29774;52.664;5.074;2023-12-20T01:49:56;10.90;81.10
44111;DHT22;29774;52.664;5.074;2023-12-20T01:52:23;11.10;81.70
44111;DHT22;29774;52.664;5.074;2023-12-20T01:54:48;10.90;80.30
44111;DHT22;29774;52.664;5.074;2023-12-20T01:57:14;10.90;80.80
44111;DHT22;29774;52.664;5.074;2023-12-20T01:59:41;11.20;81.70
44111;DHT22;29774;52.664;5.074;2023-12-20T02:02:07;11.20;80.50
44111;DHT22;29774;52.664;5.074;2023-12-20T02:04:33;11.10;80.30
44111;DHT22;29774;52.664;5.074;2023-12-20T02:06:59;11.40;80.70
44111;DHT22;29774;52.664;5.074;2023-12-20T02:09:25;11.50;79.70
44111;DHT22;29774;52.664;5.074;2023-12-20T02:11:51;11.20;78.80
44111;DHT22;29774;52.664;5.074;2023-12-20T02:14:16;11.20;79.90
44111;DHT22;29774;52.664;5.074;2023-12-20T02:16:42;11.20;79.40
44111;DHT22;29774;52.664;5.074;2023-12-20T02:19:14;11.40;80.40
44111;DHT22;29774;52.664;5.074;2023-12-20T02:21:40;11.70;79.50
44111;DHT22;29774;52.664;5.074;2023-12-20T02:24:06;11.80;78.60
44111;DHT22;29774;52.664;5.074;2023-12-20T02:26:33;11.80;78.70
44111;DHT22;29774;52.664;5.074;2023-12-20T02:28:59;11.80;78.80
44111;DHT22;29774;52.664;5.074;2023-12-20T02:31:25;11.90;78.60
44111;DHT22;29774;52.664;5.074;2023-12-20T02:33:50;11.90;77.90
44111;DHT22;29774;52.664;5.074;2023-12-20T02:36:16;11.70;78.60
44111;DHT22;29774;52.664;5.074;2023-12-20T02:38:42;11.50;78.50
44111;DHT22;29774;52.664;5.074;2023-12-20T02:41:07;11.70;79.00
44111;DHT22;29774;52.664;5.074;2023-12-20T02:43:33;11.70;79.20
44111;DHT22;29774;52.664;5.074;2023-12-20T02:45:58;11.80;79.00
44111;DHT22;29774;52.664;5.074;2023-12-20T02:48:24;11.70;78.20
44111;DHT22;29774;52.664;5.074;2023-12-20T02:50:50;11.60;78.20
44111;DHT22;29774;52.664;5.074;2023-12-20T02:53:16;11.70;79.10
44111;DHT22;29774;52.664;5.074;2023-12-20T02:55:42;11.60;78.50
44111;DHT22;29774;52.664;5.074;2023-12-20T02:58:07;11.70;78.60
44111;DHT22;29774;52.664;5.074;2023-12-20T03:00:33;11.60;78.50
44111;DHT22;29774;52.664;5.074;2023-12-20T03:02:58;11.80;78.90
44111;DHT22;29774;52.664;5.074;2023-12-20T03:05:25;11.70;77.70
44111;DHT22;29774;52.664;5.074;2023-12-20T03:07:50;11.60;77.60
44111;DHT22;29774;52.664;5.074;2023-12-20T03:10:17;11.70;78.80
44111;DHT22;29774;52.664;5.074;2023-12-20T03:12:43;11.70;79.00
44111;DHT22;29774;52.664;5.074;2023-12-20T03:15:10;12.00;78.60
44111;DHT22;29774;52.664;5.074;2023-12-20T03:17:35;12.10;78.00
44111;DHT22;29774;52.664;5.074;2023-12-20T03:20:01;12.10;78.10
44111;DHT22;29774;52.664;5.074;2023-12-20T03:22:27;12.10;77.40
44111;DHT22;29774;52.664;5.074;2023-12-20T03:24:53;12.10;77.90
44111;DHT22;29774;52.664;5.074;2023-12-20T03:27:18;12.30;77.50
44111;DHT22;29774;52.664;5.074;2023-12-20T03:29:44;12.10;76.20
44111;DHT22;29774;52.664;5.074;2023-12-20T03:32:09;12.10;78.00
44111;DHT22;29774;52.664;5.074;2023-12-20T03:34:35;12.20;77.30
44111;DHT22;29774;52.664;5.074;2023-12-20T03:37:00;12.00;76.20
44111;DHT22;29774;52.664;5.074;2023-12-20T03:39:26;11.90;77.10
44111;DHT22;29774;52.664;5.074;2023-12-20T03:41:51;11.80;77.90
44111;DHT22;29774;52.664;5.074;2023-12-20T03:44:17;12.10;77.60
44111;DHT22;29774;52.664;5.074;2023-12-20T03:46:43;12.20;77.60
44111;DHT22;29774;52.664;5.074;2023-12-20T03:49:08;12.20;77.20
44111;DHT22;29774;52.664;5.074;2023-12-20T03:51:34;12.20;77.00
44111;DHT22;29774;52.664;5.074;2023-12-20T03:53:59;12.30;76.70
44111;DHT22;29774;52.664;5.074;2023-12-20T03:56:25;12.20;76.20
44111;DHT22;29774;52.664;5.074;2023-12-20T03:58:50;11.80;75.80
44111;DHT22;29774;52.664;5.074;2023-12-20T04:01:16;12.00;77.40
44111;DHT22;29774;52.664;5.074;2023-12-20T04:03:41;12.00;77.00
44111;DHT22;29774;52.664;5.074;2023-12-20T04:06:07;12.30;77.40
44111;DHT22;29774;52.664;5.074;2023-12-20T04:08:33;12.50;76.70
44111;DHT22;29774;52.664;5.074;2023-12-20T04:10:58;12.30;76.30
44111;DHT22;29774;52.664;5.074;2023-12-20T04:13:24;12.20;76.80
44111;DHT22;29774;52.664;5.074;2023-12-20T04:15:49;12.10;76.30
44111;DHT22;29774;52.664;5.074;2023-12-20T04:18:16;11.80;76.50
44111;DHT22;29774;52.664;5.074;2023-12-20T04:20:41;11.90;77.90
44111;DHT22;29774;52.664;5.074;2023-12-20T04:23:07;12.10;77.70
44111;DHT22;29774;52.664;5.074;2023-12-20T04:25:33;12.00;77.50
44111;DHT22;29774;52.664;5.074;2023-12-20T04:27:58;12.10;77.60
44111;DHT22;29774;52.664;5.074;2023-12-20T04:30:24;11.90;77.30
44111;DHT22;29774;52.664;5.074;2023-12-20T04:32:49;11.80;77.60
44111;DHT22;29774;52.664;5.074;2023-12-20T04:35:15;11.60;75.90
44111;DHT22;29774;52.664;5.074;2023-12-20T04:37:40;11.70;77.80
44111;DHT22;29774;52.664;5.074;2023-12-20T04:40:07;11.80;78.60
44111;DHT22;29774;52.664;5.074;2023-12-20T04:42:33;11.90;78.00
44111;DHT22;29774;52.664;5.074;2023-12-20T04:44:59;11.90;77.50
44111;DHT22;29774;52.664;5.074;2023-12-20T04:47:24;12.00;78.10
44111;DHT22;29774;52.664;5.074;2023-12-20T04:49:50;12.10;77.70
44111;DHT22;29774;52.664;5.074;2023-12-20T04:52:15;12.00;77.40
44111;DHT22;29774;52.664;5.074;2023-12-20T04:54:41;12.10;77.30
44111;DHT22;29774;52.664;5.074;2023-12-20T04:57:07;12.20;77.20
44111;DHT22;29774;52.664;5.074;2023-12-20T04:59:32;12.30;77.00
44111;DHT22;29774;52.664;5.074;2023-12-20T05:01:58;12.10;76.30
44111;DHT22;29774;52.664;5.074;2023-12-20T05:04:24;12.00;77.00
44111;DHT22;29774;52.664;5.074;2023-12-20T05:06:49;12.10;77.70
44111;DHT22;29774;52.664;5.074;2023-12-20T05:09:15;12.20;77.40
44111;DHT22;29774;52.664;5.074;2023-12-20T05:11:41;12.00;76.50
44111;DHT22;29774;52.664;5.074;2023-12-20T05:14:07;12.10;76.90
44111;DHT22;29774;52.664;5.074;2023-12-20T05:16:32;12.00;77.10
44111;DHT22;29774;52.664;5.074;2023-12-20T05:18:58;11.80;76.50
44111;DHT22;29774;52.664;5.074;2023-12-20T05:21:26;12.00;77.50
44111;DHT22;29774;52.664;5.074;2023-12-20T05:23:52;12.00;77.20
44111;DHT22;29774;52.664;5.074;2023-12-20T05:26:17;11.90;78.20
44111;DHT22;29774;52.664;5.074;2023-12-20T05:28:43;12.00;76.90
44111;DHT22;29774;52.664;5.074;2023-12-20T05:31:09;12.00;77.10
44111;DHT22;29774;52.664;5.074;2023-12-20T05:33:34;12.00;76.70
44111;DHT22;29774;52.664;5.074;2023-12-20T05:36:00;11.90;77.30
44111;DHT22;29774;52.664;5.074;2023-12-20T05:38:25;11.90;77.20
44111;DHT22;29774;52.664;5.074;2023-12-20T05:40:51;11.70;77.60
44111;DHT22;29774;52.664;5.074;2023-12-20T05:43:17;11.90;77.90
44111;DHT22;29774;52.664;5.074;2023-12-20T05:45:42;11.70;77.70
44111;DHT22;29774;52.664;5.074;2023-12-20T05:48:08;11.90;78.00
44111;DHT22;29774;52.664;5.074;2023-12-20T05:50:33;11.90;78.10
44111;DHT22;29774;52.664;5.074;2023-12-20T05:53:00;12.00;77.60
44111;DHT22;29774;52.664;5.074;2023-12-20T05:55:26;11.80;77.40
44111;DHT22;29774;52.664;5.074;2023-12-20T05:57:51;11.80;77.80
44111;DHT22;29774;52.664;5.074;2023-12-20T06:00:17;12.00;78.00
44111;DHT22;29774;52.664;5.074;2023-12-20T06:02:43;12.00;77.50
44111;DHT22;29774;52.664;5.074;2023-12-20T06:05:09;12.10;77.30
44111;DHT22;29774;52.664;5.074;2023-12-20T06:07:35;11.80;76.60
44111;DHT22;29774;52.664;5.074;2023-12-20T06:10:00;12.10;78.10
44111;DHT22;29774;52.664;5.074;2023-12-20T06:12:26;12.00;77.50
44111;DHT22;29774;52.664;5.074;2023-12-20T06:14:54;12.10;77.40
44111;DHT22;29774;52.664;5.074;2023-12-20T06:17:19;12.00;77.10
44111;DHT22;29774;52.664;5.074;2023-12-20T06:19:45;12.00;77.80
44111;DHT22;29774;52.664;5.074;2023-12-20T06:22:14;12.00;77.00
44111;DHT22;29774;52.664;5.074;2023-12-20T06:24:39;12.00;77.90
44111;DHT22;29774;52.664;5.074;2023-12-20T06:27:05;12.10;78.00
44111;DHT22;29774;52.664;5.074;2023-12-20T06:29:30;12.10;77.30
44111;DHT22;29774;52.664;5.074;2023-12-20T06:31:56;12.00;77.30
44111;DHT22;29774;52.664;5.074;2023-12-20T06:34:22;12.20;77.80
44111;DHT22;29774;52.664;5.074;2023-12-20T06:36:47;12.20;76.30
44111;DHT22;29774;52.664;5.074;2023-12-20T06:39:13;12.10;76.60
44111;DHT22;29774;52.664;5.074;2023-12-20T06:41:39;12.10;77.00
44111;DHT22;29774;52.664;5.074;2023-12-20T06:44:05;12.00;77.20
44111;DHT22;29774;52.664;5.074;2023-12-20T06:46:30;12.00;77.10
44111;DHT22;29774;52.664;5.074;2023-12-20T06:48:56;12.00;77.40
44111;DHT22;29774;52.664;5.074;2023-12-20T06:51:22;12.20;78.30
44111;DHT22;29774;52.664;5.074;2023-12-20T06:53:51;12.50;77.40
44111;DHT22;29774;52.664;5.074;2023-12-20T06:56:17;12.60;76.90
44111;DHT22;29774;52.664;5.074;2023-12-20T06:58:42;12.50;76.70
44111;DHT22;29774;52.664;5.074;2023-12-20T07:01:11;12.20;76.50
44111;DHT22;29774;52.664;5.074;2023-12-20T07:03:37;12.30;77.10
44111;DHT22;29774;52.664;5.074;2023-12-20T07:06:03;12.20;76.70
44111;DHT22;29774;52.664;5.074;2023-12-20T07:08:29;12.30;77.40
44111;DHT22;29774;52.664;5.074;2023-12-20T07:10:54;12.40;77.50
44111;DHT22;29774;52.664;5.074;2023-12-20T07:13:20;12.30;76.50
44111;DHT22;29774;52.664;5.074;2023-12-20T07:15:45;12.20;77.70
44111;DHT22;29774;52.664;5.074;2023-12-20T07:18:11;12.40;76.90
44111;DHT22;29774;52.664;5.074;2023-12-20T07:20:37;12.40;76.70
44111;DHT22;29774;52.664;5.074;2023-12-20T07:23:02;12.40;76.40
44111;DHT22;29774;52.664;5.074;2023-12-20T07:25:28;12.30;76.60
44111;DHT22;29774;52.664;5.074;2023-12-20T07:27:53;12.30;77.40
44111;DHT22;29774;52.664;5.074;2023-12-20T07:30:19;12.50;77.60
44111;DHT22;29774;52.664;5.074;2023-12-20T07:32:45;12.40;76.90
44111;DHT22;29774;52.664;5.074;2023-12-20T07:35:10;12.20;76.60
44111;DHT22;29774;52.664;5.074;2023-12-20T07:37:36;12.30;77.40
44111;DHT22;29774;52.664;5.074;2023-12-20T07:40:02;12.40;77.10
44111;DHT22;29774;52.664;5.074;2023-12-20T07:42:28;12.40;77.40
44111;DHT22;29774;52.664;5.074;2023-12-20T07:44:54;12.60;76.90
44111;DHT22;29774;52.664;5.074;2023-12-20T07:47:20;12.60;76.70
44111;DHT22;29774;52.664;5.074;2023-12-20T07:49:48;12.50;76.40
44111;DHT22;29774;52.664;5.074;2023-12-20T07:52:14;12.30;76.50
44111;DHT22;29774;52.664;5.074;2023-12-20T07:54:40;12.40;76.60
44111;DHT22;29774;52.664;5.074;2023-12-20T07:57:05;12.40;76.60
44111;DHT22;29774;52.664;5.074;2023-12-20T07:59:31;12.50;77.00
44111;DHT22;29774;52.664;5.074;2023-12-20T08:01:56;12.60;76.80
44111;DHT22;29774;52.664;5.074;2023-12-20T08:04:22;12.60;76.60
44111;DHT22;29774;52.664;5.074;2023-12-20T08:06:48;12.50;76.70
44111;DHT22;29774;52.664;5.074;2023-12-20T08:09:13;12.50;76.60
44111;DHT22;29774;52.664;5.074;2023-12-20T08:11:39;12.40;76.60
44111;DHT22;29774;52.664;5.074;2023-12-20T08:14:04;12.30;77.20
44111;DHT22;29774;52.664;5.074;2023-12-20T08:16:30;12.30;77.10
44111;DHT22;29774;52.664;5.074;2023-12-20T08:18:56;12.70;77.50
44111;DHT22;29774;52.664;5.074;2023-12-20T08:21:21;12.60;77.10
44111;DHT22;29774;52.664;5.074;2023-12-20T08:23:48;12.70;76.80
44111;DHT22;29774;52.664;5.074;2023-12-20T08:26:13;12.60;77.10
44111;DHT22;29774;52.664;5.074;2023-12-20T08:28:39;12.70;76.80
44111;DHT22;29774;52.664;5.074;2023-12-20T08:31:04;12.70;76.60
44111;DHT22;29774;52.664;5.074;2023-12-20T08:33:30;12.70;77.00
44111;DHT22;29774;52.664;5.074;2023-12-20T08:35:56;12.60;76.70
44111;DHT22;29774;52.664;5.074;2023-12-20T08:38:21;12.40;77.10
44111;DHT22;29774;52.664;5.074;2023-12-20T08:40:47;12.50;77.20
44111;DHT22;29774;52.664;5.074;2023-12-20T08:43:15;12.50;77.00
44111;DHT22;29774;52.664;5.074;2023-12-20T08:45:40;12.50;76.90
44111;DHT22;29774;52.664;5.074;2023-12-20T08:48:06;12.60;76.60
44111;DHT22;29774;52.664;5.074;2023-12-20T08:50:32;12.50;76.40
44111;DHT22;29774;52.664;5.074;2023-12-20T08:52:58;12.50;76.90
44111;DHT22;29774;52.664;5.074;2023-12-20T08:55:23;12.60;77.40
44111;DHT22;29774;52.664;5.074;2023-12-20T08:57:49;12.50;76.60
44111;DHT22;29774;52.664;5.074;2023-12-20T09:00:16;12.50;76.70
44111;DHT22;29774;52.664;5.074;2023-12-20T09:02:42;12.60;76.70
44111;DHT22;29774;52.664;5.074;2023-12-20T09:05:07;12.50;76.40
44111;DHT22;29774;52.664;5.074;2023-12-20T09:07:33;12.60;76.70
44111;DHT22;29774;52.664;5.074;2023-12-20T09:09:59;12.50;76.30
44111;DHT22;29774;52.664;5.074;2023-12-20T09:12:24;12.50;76.60
44111;DHT22;29774;52.664;5.074;2023-12-20T09:14:50;12.50;77.00
44111;DHT22;29774;52.664;5.074;2023-12-20T09:17:17;12.50;76.80
44111;DHT22;29774;52.664;5.074;2023-12-20T09:19:44;12.60;77.00
44111;DHT22;29774;52.664;5.074;2023-12-20T09:22:10;12.60;76.70
44111;DHT22;29774;52.664;5.074;2023-12-20T09:24:36;12.60;76.90
44111;DHT22;29774;52.664;5.074;2023-12-20T09:27:01;12.70;76.70
44111;DHT22;29774;52.664;5.074;2023-12-20T09:29:28;12.60;76.40
44111;DHT22;29774;52.664;5.074;2023-12-20T09:31:54;12.70;77.20
44111;DHT22;29774;52.664;5.074;2023-12-20T09:34:19;12.70;77.00
44111;DHT22;29774;52.664;5.074;2023-12-20T09:36:45;12.70;77.20
44111;DHT22;29774;52.664;5.074;2023-12-20T09:39:16;12.70;76.90
44111;DHT22;29774;52.664;5.074;2023-12-20T09:42:02;12.70;77.60
44111;DHT22;29774;52.664;5.074;2023-12-20T09:44:29;12.70;77.50
44111;DHT22;29774;52.664;5.074;2023-12-20T09:46:55;12.80;77.20
44111;DHT22;29774;52.664;5.074;2023-12-20T09:49:21;12.70;77.50
44111;DHT22;29774;52.664;5.074;2023-12-20T09:51:50;12.90;77.60
44111;DHT22;29774;52.664;5.074;2023-12-20T09:54:17;12.90;77.70
44111;DHT22;29774;52.664;5.074;2023-12-20T09:56:46;12.90;77.80
44111;DHT22;29774;52.664;5.074;2023-12-20T09:59:12;13.00;78.10
44111;DHT22;29774;52.664;5.074;2023-12-20T10:01:39;13.00;77.70
44111;DHT22;29774;52.664;5.074;2023-12-20T10:04:06;12.80;77.40
44111;DHT22;29774;52.664;5.074;2023-12-20T10:06:41;12.90;78.10
44111;DHT22;29774;52.664;5.074;2023-12-20T10:09:07;13.00;78.00
44111;DHT22;29774;52.664;5.074;2023-12-20T10:11:35;13.00;78.20
44111;DHT22;29774;52.664;5.074;2023-12-20T10:14:03;12.90;77.80
44111;DHT22;29774;52.664;5.074;2023-12-20T10:16:29;12.90;77.80
44111;DHT22;29774;52.664;5.074;2023-12-20T10:18:55;12.80;77.70
44111;DHT22;29774;52.664;5.074;2023-12-20T10:21:24;12.80;77.80
44111;DHT22;29774;52.664;5.074;2023-12-20T10:23:52;12.70;77.80
44111;DHT22;29774;52.664;5.074;2023-12-20T10:26:23;12.90;78.10
44111;DHT22;29774;52.664;5.074;2023-12-20T10:28:56;12.90;78.20
44111;DHT22;29774;52.664;5.074;2023-12-20T10:31:31;13.00;77.80
44111;DHT22;29774;52.664;5.074;2023-12-20T10:33:58;12.90;77.70
44111;DHT22;29774;52.664;5.074;2023-12-20T10:36:29;12.80;77.80
44111;DHT22;29774;52.664;5.074;2023-12-20T10:38:56;12.70;77.80
44111;DHT22;29774;52.664;5.074;2023-12-20T10:41:32;12.70;77.90
44111;DHT22;29774;52.664;5.074;2023-12-20T10:44:02;12.70;78.10
44111;DHT22;29774;52.664;5.074;2023-12-20T10:46:29;12.70;77.60
44111;DHT22;29774;52.664;5.074;2023-12-20T10:48:58;12.70;77.60
44111;DHT22;29774;52.664;5.074;2023-12-20T10:51:25;12.80;77.90
44111;DHT22;29774;52.664;5.074;2023-12-20T10:53:53;12.80;77.90
44111;DHT22;29774;52.664;5.074;2023-12-20T10:56:19;12.80;77.70
44111;DHT22;29774;52.664;5.074;2023-12-20T10:58:46;12.70;77.50
44111;DHT22;29774;52.664;5.074;2023-12-20T11:01:14;12.70;77.80
44111;DHT22;29774;52.664;5.074;2023-12-20T11:03:48;12.70;78.20
44111;DHT22;29774;52.664;5.074;2023-12-20T11:09:12;12.80;77.90
44111;DHT22;29774;52.664;5.074;2023-12-20T11:12:05;12.80;78.00
44111;DHT22;29774;52.664;5.074;2023-12-20T11:14:42;12.80;77.70
44111;DHT22;29774;52.664;5.074;2023-12-20T11:17:11;12.80;77.40
44111;DHT22;29774;52.664;5.074;2023-12-20T11:22:35;13.00;78.40
44111;DHT22;29774;52.664;5.074;2023-12-20T11:25:05;13.10;78.00
44111;DHT22;29774;52.664;5.074;2023-12-20T11:27:32;13.00;77.90
44111;DHT22;29774;52.664;5.074;2023-12-20T11:29:58;13.00;78.20
44111;DHT22;29774;52.664;5.074;2023-12-20T11:34:51;12.80;77.90
44111;DHT22;29774;52.664;5.074;2023-12-20T11:37:19;12.90;78.40
44111;DHT22;29774;52.664;5.074;2023-12-20T11:39:45;13.00;78.40
44111;DHT22;29774;52.664;5.074;2023-12-20T11:42:19;13.10;78.10
44111;DHT22;29774;52.664;5.074;2023-12-20T11:44:45;13.00;77.70
44111;DHT22;29774;52.664;5.074;2023-12-20T11:47:13;13.10;77.90
44111;DHT22;29774;52.664;5.074;2023-12-20T11:49:39;13.00;77.40
44111;DHT22;29774;52.664;5.074;2023-12-20T11:52:05;12.90;77.20
44111;DHT22;29774;52.664;5.074;2023-12-20T11:54:31;13.00;78.00
44111;DHT22;29774;52.664;5.074;2023-12-20T11:56:57;13.00;77.60
44111;DHT22;29774;52.664;5.074;2023-12-20T11:59:23;13.00;77.70
44111;DHT22;29774;52.664;5.074;2023-12-20T12:01:49;12.90;77.80
44111;DHT22;29774;52.664;5.074;2023-12-20T12:04:15;12.90;77.50
44111;DHT22;29774;52.664;5.074;2023-12-20T12:06:43;12.80;78.00
44111;DHT22;29774;52.664;5.074;2023-12-20T12:09:08;12.90;78.00
44111;DHT22;29774;52.664;5.074;2023-12-20T12:11:34;12.90;77.50
44111;DHT22;29774;52.664;5.074;2023-12-20T12:14:00;12.90;77.40
44111;DHT22;29774;52.664;5.074;2023-12-20T12:16:26;12.90;77.50
44111;DHT22;29774;52.664;5.074;2023-12-20T12:18:56;12.90;77.40
44111;DHT22;29774;52.664;5.074;2023-12-20T12:21:22;12.90;77.10
44111;DHT22;29774;52.664;5.074;2023-12-20T12:23:48;12.70;77.30
44111;DHT22;29774;52.664;5.074;2023-12-20T12:26:13;12.70;77.10
44111;DHT22;29774;52.664;5.074;2023-12-20T12:28:42;12.60;77.40
44111;DHT22;29774;52.664;5.074;2023-12-20T12:31:12;12.70;77.60
44111;DHT22;29774;52.664;5.074;2023-12-20T12:33:40;12.70;77.10
44111;DHT22;29774;52.664;5.074;2023-12-20T12:36:07;12.70;77.00
44111;DHT22;29774;52.664;5.074;2023-12-20T12:38:33;12.70;77.00
44111;DHT22;29774;52.664;5.074;2023-12-20T12:41:00;12.70;77.30
44111;DHT22;29774;52.664;5.074;2023-12-20T12:43:26;12.70;77.70
44111;DHT22;29774;52.664;5.074;2023-12-20T12:45:51;12.70;77.30
44111;DHT22;29774;52.664;5.074;2023-12-20T12:48:17;12.80;77.80
44111;DHT22;29774;52.664;5.074;2023-12-20T12:50:43;12.80;77.70
44111;DHT22;29774;52.664;5.074;2023-12-20T12:53:09;12.80;77.40
44111;DHT22;29774;52.664;5.074;2023-12-20T12:55:35;12.70;77.30
44111;DHT22;29774;52.664;5.074;2023-12-20T12:58:01;12.80;77.70
44111;DHT22;29774;52.664;5.074;2023-12-20T13:00:27;12.90;77.40
44111;DHT22;29774;52.664;5.074;2023-12-20T13:02:53;12.90;77.30
44111;DHT22;29774;52.664;5.074;2023-12-20T13:05:18;13.00;77.90
44111;DHT22;29774;52.664;5.074;2023-12-20T13:07:44;12.90;77.20
44111;DHT22;29774;52.664;5.074;2023-12-20T13:10:11;12.80;78.00
44111;DHT22;29774;52.664;5.074;2023-12-20T13:12:37;12.80;77.90
44111;DHT22;29774;52.664;5.074;2023-12-20T13:15:03;12.80;77.60
44111;DHT22;29774;52.664;5.074;2023-12-20T13:17:31;12.70;77.30
44111;DHT22;29774;52.664;5.074;2023-12-20T13:19:57;12.90;77.80
44111;DHT22;29774;52.664;5.074;2023-12-20T13:22:23;12.90;78.20
44111;DHT22;29774;52.664;5.074;2023-12-20T13:24:49;12.90;78.30
44111;DHT22;29774;52.664;5.074;2023-12-20T13:27:14;13.00;77.80
44111;DHT22;29774;52.664;5.074;2023-12-20T13:29:40;13.10;77.30
44111;DHT22;29774;52.664;5.074;2023-12-20T13:32:06;13.10;77.10
44111;DHT22;29774;52.664;5.074;2023-12-20T13:34:32;13.00;76.90
44111;DHT22;29774;52.664;5.074;2023-12-20T13:36:57;12.70;76.60
44111;DHT22;29774;52.664;5.074;2023-12-20T13:39:23;12.90;77.60
44111;DHT22;29774;52.664;5.074;2023-12-20T13:41:49;12.90;76.80
44111;DHT22;29774;52.664;5.074;2023-12-20T13:44:14;12.90;77.00
44111;DHT22;29774;52.664;5.074;2023-12-20T13:46:41;13.00;77.00
44111;DHT22;29774;52.664;5.074;2023-12-20T13:49:07;13.00;76.80
44111;DHT22;29774;52.664;5.074;2023-12-20T13:51:33;13.00;76.70
44111;DHT22;29774;52.664;5.074;2023-12-20T13:53:59;13.00;76.50
44111;DHT22;29774;52.664;5.074;2023-12-20T13:56:25;13.00;76.50
44111;DHT22;29774;52.664;5.074;2023-12-20T13:58:51;13.00;75.90
44111;DHT22;29774;52.664;5.074;2023-12-20T14:01:17;13.10;76.20
44111;DHT22;29774;52.664;5.074;2023-12-20T14:03:42;13.10;76.20
44111;DHT22;29774;52.664;5.074;2023-12-20T14:06:08;13.00;75.90
44111;DHT22;29774;52.664;5.074;2023-12-20T14:08:34;12.90;75.80
44111;DHT22;29774;52.664;5.074;2023-12-20T14:10:59;13.00;76.60
44111;DHT22;29774;52.664;5.074;2023-12-20T14:13:26;13.00;76.20
44111;DHT22;29774;52.664;5.074;2023-12-20T14:15:52;13.00;76.40
44111;DHT22;29774;52.664;5.074;2023-12-20T14:18:19;13.10;76.10
44111;DHT22;29774;52.664;5.074;2023-12-20T14:20:45;13.10;75.60
44111;DHT22;29774;52.664;5.074;2023-12-20T14:23:12;13.00;76.40
44111;DHT22;29774;52.664;5.074;2023-12-20T14:25:41;13.10;76.20
44111;DHT22;29774;52.664;5.074;2023-12-20T14:28:07;13.20;76.00
44111;DHT22;29774;52.664;5.074;2023-12-20T14:30:32;13.20;75.40
44111;DHT22;29774;52.664;5.074;2023-12-20T14:32:59;13.10;75.50
44111;DHT22;29774;52.664;5.074;2023-12-20T14:35:24;13.20;75.80
44111;DHT22;29774;52.664;5.074;2023-12-20T14:37:50;13.30;75.60
44111;DHT22;29774;52.664;5.074;2023-12-20T14:40:16;13.20;75.50
44111;DHT22;29774;52.664;5.074;2023-12-20T14:42:42;13.00;75.20
44111;DHT22;29774;52.664;5.074;2023-12-20T14:45:09;13.00;76.50
44111;DHT22;29774;52.664;5.074;2023-12-20T14:47:35;13.20;75.80
44111;DHT22;29774;52.664;5.074;2023-12-20T14:50:04;13.20;76.10
44111;DHT22;29774;52.664;5.074;2023-12-20T14:52:31;13.30;75.90
44111;DHT22;29774;52.664;5.074;2023-12-20T14:54:56;13.30;75.40
44111;DHT22;29774;52.664;5.074;2023-12-20T14:57:22;13.10;75.10
44111;DHT22;29774;52.664;5.074;2023-12-20T14:59:48;13.20;76.20
44111;DHT22;29774;52.664;5.074;2023-12-20T15:02:13;13.10;76.00
44111;DHT22;29774;52.664;5.074;2023-12-20T15:04:40;13.30;76.10
44111;DHT22;29774;52.664;5.074;2023-12-20T15:07:06;13.30;74.80
44111;DHT22;29774;52.664;5.074;2023-12-20T15:09:32;13.20;75.10
44111;DHT22;29774;52.664;5.074;2023-12-20T15:11:57;13.20;75.70
44111;DHT22;29774;52.664;5.074;2023-12-20T15:14:23;13.00;75.30
44111;DHT22;29774;52.664;5.074;2023-12-20T15:16:49;13.00;76.30
44111;DHT22;29774;52.664;5.074;2023-12-20T15:19:15;13.10;76.30
44111;DHT22;29774;52.664;5.074;2023-12-20T15:21:41;13.00;75.90
44111;DHT22;29774;52.664;5.074;2023-12-20T15:24:10;12.80;75.20
44111;DHT22;29774;52.664;5.074;2023-12-20T15:26:41;12.80;76.90
44111;DHT22;29774;52.664;5.074;2023-12-20T15:29:07;12.80;76.30
44111;DHT22;29774;52.664;5.074;2023-12-20T15:31:35;12.80;76.10
44111;DHT22;29774;52.664;5.074;2023-12-20T15:34:02;12.70;76.10